Accueil
METAR-TAF:

METAR-TAF

Aéroports :

Uden, Pays-Bas

Base aérienne Volkel-Uden

latitude: 51-39N, longitude: 005-42E, altitude: 22 m

Observation

Le bulletin a été fait il y a 35 minutes, à 16:55 UTC
Vent 3 kt de sud/sud-est
Température 16°C
Humidité 68%
Pression 1019 hPa
Visibilité 10 km ou plus

METAR: EHVK 211655Z AUTO 15003KT 9999 NCD 16/10 Q1019 BLU

Heure: 19:30 (17:30 UTC)

Prévision

Le bulletin a été fait il y a 54 minutes, à 16:36 UTC
Prévision valable du 21 à 17 UTC au 22 à 05 UTC
Vent 5 kt de sud/sud-est
Visibilité 10 km ou plus
pas de nuages en-dessous de 1500 mètres et pas de cumulonimbus.
Probabilité 30%
du 22 à 03 UTC au 22 à 05 UTC
Vent 2 kt de direction variable
Visibilité: 4500 m
Brouillard mince

TAF: EHVK 211636Z 2117/2205 15005KT CAVOK PROB30 2203/2205 VRB02KT 4500 MIFG

Observations et prévisions météorologiques de plus de 4000 aéroports (messages METAR et TAF).

Les stations disponibles sont représentées par des disques jaunes et rouges sur la carte.

Passer la souris dessus pour voir le nom de la station.

Cliquer dessus pour voir les observations et prévisions météorologiques.

Pour changer de carte: cliquez sur les boutons verts avec une croix noire pour zoomer, sur le bouton vert avec un tiret pour effectuer un zoom arrière, ou sur les flèches vertes pour les cartes adjacentes.


METAR-TAF: